createdAt,value
2022-11-20T11:30:02.650Z,43
2022-11-20T11:32:02.307Z,41
2022-11-20T11:34:02.355Z,44
2022-11-20T11:36:02.452Z,57
2022-11-20T11:38:02.557Z,57
2022-11-20T11:40:23.975Z,55
2022-11-20T11:42:02.747Z,57
2022-11-20T11:44:02.837Z,57
2022-11-20T11:46:02.937Z,112
2022-11-20T11:50:03.165Z,99
2022-11-20T11:52:03.261Z,103
2022-11-20T11:54:03.343Z,93
2022-11-20T11:56:03.454Z,74
2022-11-20T11:58:03.515Z,68
2022-11-20T12:00:03.624Z,58
2022-11-20T12:02:03.871Z,51
2022-11-20T12:04:03.837Z,52
2022-11-20T12:06:04.143Z,54
2022-11-20T12:08:07.013Z,54
2022-11-20T12:10:04.124Z,54
2022-11-20T12:12:04.331Z,65
2022-11-20T12:14:04.443Z,63
2022-11-20T12:16:04.512Z,89
2022-11-20T12:18:04.630Z,81
2022-11-20T12:20:04.702Z,81
2022-11-20T12:22:05.344Z,78
2022-11-20T12:24:04.945Z,83
2022-11-20T12:26:05.031Z,98
2022-11-20T12:28:05.100Z,98
2022-11-20T12:30:05.176Z,96
2022-11-20T12:32:05.276Z,86
2022-11-20T12:34:05.360Z,83
2022-11-20T12:36:05.452Z,68
2022-11-20T12:38:05.558Z,68
2022-11-20T12:40:05.653Z,60
2022-11-20T12:42:05.741Z,50
2022-11-20T12:44:05.836Z,64
2022-11-20T12:46:05.914Z,55
2022-11-20T12:48:06.030Z,59
2022-11-20T12:50:06.117Z,55
2022-11-20T12:52:06.191Z,60
2022-11-20T12:54:06.305Z,59
2022-11-20T12:56:06.388Z,68
2022-11-20T12:58:06.545Z,65
2022-11-20T13:00:06.543Z,64
2022-11-20T13:02:06.643Z,69
2022-11-20T13:04:10.469Z,79
2022-11-20T13:06:06.822Z,73
2022-11-20T13:08:06.930Z,70
2022-11-20T13:10:12.734Z,46
2022-11-20T13:12:07.134Z,42
2022-11-20T13:14:07.259Z,42
2022-11-20T13:16:07.275Z,39
2022-11-20T13:18:07.378Z,35
2022-11-20T13:20:07.496Z,38
2022-11-20T13:22:07.579Z,45
2022-11-20T13:24:07.671Z,50
2022-11-20T13:26:07.759Z,49
2022-11-20T13:28:07.942Z,53
2022-11-20T13:30:07.918Z,53
2022-11-20T13:32:08.344Z,55
2022-11-20T13:34:08.064Z,56
2022-11-20T13:36:08.157Z,60
2022-11-20T13:38:08.206Z,64
2022-11-20T13:40:08.329Z,65
2022-11-20T13:42:08.465Z,83
2022-11-20T13:44:09.206Z,108
2022-11-20T13:46:08.686Z,112
2022-11-20T13:48:08.669Z,126
2022-11-20T13:50:08.753Z,126
2022-11-20T13:52:08.881Z,112
2022-11-20T13:54:08.885Z,105
2022-11-20T13:56:08.982Z,93
2022-11-20T13:58:09.201Z,72
2022-11-20T14:00:09.281Z,97
2022-11-20T14:02:09.374Z,78
2022-11-20T14:04:09.432Z,71
2022-11-20T14:06:09.516Z,82
2022-11-20T14:08:09.599Z,78
2022-11-20T14:10:09.739Z,68
2022-11-20T14:12:09.770Z,48
2022-11-20T14:14:39.900Z,49
2022-11-20T14:16:39.990Z,38
2022-11-20T14:18:40.113Z,29
2022-11-20T14:20:40.239Z,20
2022-11-20T14:22:40.349Z,18
2022-11-20T14:24:40.439Z,17
2022-11-20T14:26:40.568Z,16
2022-11-20T14:28:40.653Z,24
2022-11-20T14:30:40.764Z,24
2022-11-20T14:32:40.887Z,22
2022-11-20T14:34:41.187Z,28
2022-11-20T14:36:41.106Z,35
2022-11-20T14:38:41.201Z,45
2022-11-20T14:40:41.398Z,32
2022-11-20T14:42:41.451Z,28
2022-11-20T14:44:41.538Z,24
2022-11-20T14:46:41.663Z,25
2022-11-20T14:48:41.822Z,23
2022-11-20T14:50:41.871Z,24
2022-11-20T14:52:41.982Z,37
2022-11-20T14:54:42.087Z,45
2022-11-20T14:56:42.190Z,42
2022-11-20T14:58:42.274Z,37
2022-11-20T15:00:42.410Z,39
2022-11-20T15:02:42.502Z,40
2022-11-20T15:04:42.575Z,51
2022-11-20T15:06:42.689Z,64
2022-11-20T15:08:42.847Z,94
2022-11-20T15:10:42.891Z,80
2022-11-20T15:12:43.029Z,62
2022-11-20T15:14:43.100Z,57
2022-11-20T15:18:43.322Z,52
2022-11-20T15:20:43.416Z,52
2022-11-20T15:22:43.553Z,55
2022-11-20T15:24:43.627Z,48
2022-11-20T15:26:43.742Z,50
2022-11-20T15:28:43.871Z,42
2022-11-20T15:30:43.982Z,44
2022-11-20T15:32:44.067Z,43
2022-11-20T15:34:44.159Z,28
2022-11-20T15:36:44.248Z,22
2022-11-20T15:38:44.393Z,28
2022-11-20T15:40:44.496Z,31
2022-11-20T15:42:44.597Z,35
2022-11-20T15:44:44.695Z,42
2022-11-20T15:46:44.807Z,47
2022-11-20T15:48:47.909Z,45
2022-11-20T15:50:45.015Z,47
2022-11-20T15:52:45.098Z,37
2022-11-20T15:54:45.215Z,41
2022-11-20T15:56:45.297Z,41
2022-11-20T15:58:45.406Z,36
2022-11-20T16:00:45.491Z,28
2022-11-20T16:02:45.599Z,24
2022-11-20T16:04:45.721Z,21
2022-11-20T16:06:45.994Z,20
2022-11-20T16:08:45.952Z,17
2022-11-20T16:10:46.025Z,13
2022-11-20T16:12:46.146Z,14
2022-11-20T16:14:46.236Z,17
2022-11-20T16:16:46.341Z,17
2022-11-20T16:18:46.440Z,17
2022-11-20T16:20:46.522Z,16
2022-11-20T16:22:46.626Z,19
2022-11-20T16:24:46.711Z,21
2022-11-20T16:26:46.819Z,22
2022-11-20T16:28:46.898Z,25
2022-11-20T16:30:47.067Z,28
2022-11-20T16:32:47.094Z,26
2022-11-20T16:34:47.199Z,24
2022-11-20T16:36:47.299Z,23
2022-11-20T16:38:47.391Z,20
2022-11-20T16:40:47.497Z,21
2022-11-20T16:42:47.600Z,20
2022-11-20T16:44:47.695Z,20
2022-11-20T16:46:47.806Z,21
2022-11-20T16:48:47.912Z,23
2022-11-20T16:50:47.999Z,27
2022-11-20T16:52:48.086Z,29
2022-11-20T16:54:48.182Z,32
2022-11-20T16:56:48.283Z,34
2022-11-20T16:58:48.378Z,29
2022-11-20T17:02:48.558Z,31
2022-11-20T17:04:48.636Z,32
2022-11-20T17:06:48.725Z,34
2022-11-20T17:08:48.865Z,35
2022-11-20T17:10:48.921Z,38
2022-11-20T17:12:49.144Z,38
2022-11-20T17:14:49.109Z,39
2022-11-20T17:16:49.212Z,35
2022-11-20T17:18:49.305Z,39
2022-11-20T17:20:49.389Z,43
2022-11-20T17:22:49.464Z,41
2022-11-20T17:24:49.560Z,39
2022-11-20T17:26:49.654Z,37
2022-11-20T17:28:49.787Z,38
2022-11-20T17:30:49.833Z,34
2022-11-20T17:32:49.904Z,34
2022-11-20T17:34:50.038Z,35
2022-11-20T17:36:50.115Z,41
2022-11-20T17:38:50.197Z,56
2022-11-20T17:40:50.249Z,58
2022-11-20T17:42:50.364Z,65
2022-11-20T17:44:50.451Z,66
2022-11-20T17:46:50.556Z,69
2022-11-20T17:48:50.707Z,70
2022-11-20T17:50:50.743Z,67
2022-11-20T17:52:50.811Z,76
2022-11-20T17:54:50.906Z,72
2022-11-20T17:56:50.981Z,57
2022-11-20T17:58:51.078Z,55
2022-11-20T18:00:51.137Z,53
2022-11-20T18:02:51.213Z,44
2022-11-20T18:04:51.320Z,41
2022-11-20T18:06:51.409Z,43
2022-11-20T18:08:51.486Z,45
2022-11-20T18:10:51.619Z,47
2022-11-20T18:13:21.743Z,47
2022-11-20T18:15:21.843Z,54
2022-11-20T18:17:21.958Z,55
2022-11-20T18:19:22.075Z,49
2022-11-20T18:21:22.194Z,52
2022-11-20T18:23:22.464Z,44
2022-11-20T18:25:22.425Z,41
2022-11-20T18:27:22.599Z,44
2022-11-20T18:29:22.994Z,38
2022-11-20T18:31:22.783Z,34
2022-11-20T18:33:28.133Z,26
2022-11-20T18:35:22.985Z,26
2022-11-20T18:39:23.240Z,25
2022-11-20T18:41:23.583Z,21
2022-11-20T18:43:23.486Z,17
2022-11-20T18:45:23.582Z,18
2022-11-20T18:47:23.723Z,18
2022-11-20T18:49:23.794Z,18
2022-11-20T18:51:23.900Z,16
2022-11-20T18:53:24.068Z,18
2022-11-20T18:55:24.191Z,23
2022-11-20T18:57:24.255Z,23
2022-11-20T18:59:24.349Z,14
2022-11-20T19:01:24.480Z,12
2022-11-20T19:03:24.576Z,13
2022-11-20T19:05:24.660Z,16
2022-11-20T19:07:24.915Z,12
2022-11-20T19:09:25.286Z,11
2022-11-20T19:11:24.997Z,14
2022-11-20T19:13:25.081Z,12
2022-11-20T19:15:25.168Z,9
2022-11-20T19:19:25.832Z,8
2022-11-20T19:21:25.526Z,12
2022-11-20T19:23:25.682Z,11
2022-11-20T19:25:25.775Z,14
2022-11-20T19:27:25.910Z,15
2022-11-20T19:29:26.415Z,17
2022-11-20T19:31:26.354Z,26
2022-11-20T19:33:26.214Z,12
2022-11-20T19:35:26.322Z,13
2022-11-20T19:37:26.440Z,10
2022-11-20T19:39:26.982Z,12
2022-11-20T19:41:26.675Z,12
2022-11-20T19:43:26.752Z,11
2022-11-20T19:45:26.839Z,10
2022-11-20T19:47:45.986Z,9
2022-11-20T19:49:27.091Z,9
2022-11-20T19:51:27.058Z,11
2022-11-20T19:53:27.212Z,12
2022-11-20T19:55:27.383Z,9
2022-11-20T19:57:27.395Z,9
2022-11-20T19:59:27.486Z,10
2022-11-20T20:01:27.690Z,9
2022-11-20T20:03:27.711Z,8
2022-11-20T20:05:27.893Z,6
2022-11-20T20:07:28.042Z,7
2022-11-20T20:09:27.995Z,9
2022-11-20T20:11:28.083Z,9
2022-11-20T20:13:28.210Z,10
2022-11-20T20:15:28.312Z,11
2022-11-20T20:17:28.415Z,8
2022-11-20T20:19:28.484Z,8
2022-11-20T20:21:28.588Z,9
2022-11-20T20:23:28.723Z,10
2022-11-20T20:25:28.879Z,7
2022-11-20T20:27:28.904Z,5
2022-11-20T20:29:29.007Z,14
2022-11-20T20:31:29.124Z,11
2022-11-20T20:33:29.212Z,6
2022-11-20T20:35:29.305Z,8
2022-11-20T20:37:29.406Z,13
2022-11-20T20:39:29.521Z,18
2022-11-20T20:41:29.633Z,11
2022-11-20T20:43:29.707Z,7
2022-11-20T20:45:29.807Z,8
2022-11-20T20:47:29.916Z,9
2022-11-20T20:49:30.018Z,6
2022-11-20T20:51:30.119Z,7
2022-11-20T20:53:30.245Z,6
2022-11-20T20:55:30.341Z,6
2022-11-20T20:57:30.431Z,4
2022-11-20T20:59:30.550Z,5
2022-11-20T21:01:30.675Z,6
2022-11-20T21:03:33.093Z,7
2022-11-20T21:05:30.868Z,5
2022-11-20T21:07:31.038Z,4
2022-11-20T21:09:31.023Z,5
2022-11-20T21:11:31.155Z,8
2022-11-20T21:13:31.250Z,7
2022-11-20T21:15:31.333Z,8
2022-11-20T21:17:31.447Z,13
2022-11-20T21:19:31.571Z,15
2022-11-20T21:21:31.642Z,7
2022-11-20T21:23:31.737Z,10
2022-11-20T21:25:31.826Z,4
2022-11-20T21:27:31.919Z,5
2022-11-20T21:29:32.073Z,4
2022-11-20T21:31:32.114Z,4
2022-11-20T21:33:32.195Z,4
2022-11-20T21:35:32.316Z,3
2022-11-20T21:37:35.975Z,5
2022-11-20T21:39:32.483Z,6
2022-11-20T21:41:32.577Z,5
2022-11-20T21:43:32.664Z,9
2022-11-20T21:45:32.763Z,7
2022-11-20T21:47:32.875Z,8
2022-11-20T21:49:32.960Z,8
2022-11-20T21:51:33.051Z,5
2022-11-20T21:53:33.141Z,7
2022-11-20T21:55:33.232Z,9
2022-11-20T21:57:33.333Z,6
2022-11-20T21:59:33.434Z,4
2022-11-20T22:01:33.580Z,5
2022-11-20T22:03:33.629Z,9
2022-11-20T22:07:33.804Z,9
2022-11-20T22:09:33.871Z,5
2022-11-20T22:11:33.946Z,6
2022-11-20T22:13:34.068Z,5
2022-11-20T22:15:59.279Z,5
2022-11-20T22:17:34.195Z,8
2022-11-20T22:19:34.302Z,8
2022-11-20T22:21:34.398Z,7
2022-11-20T22:23:34.475Z,9
2022-11-20T22:25:34.589Z,15
2022-11-20T22:27:34.650Z,8
2022-11-20T22:29:34.768Z,6
2022-11-20T22:31:34.847Z,5
2022-11-20T22:33:34.920Z,6
2022-11-20T22:35:35.000Z,6
2022-11-20T22:37:35.093Z,6
2022-11-20T22:39:35.167Z,7
2022-11-20T22:41:35.246Z,10
2022-11-20T22:43:35.366Z,4
2022-11-20T22:45:35.478Z,5
2022-11-20T22:47:35.595Z,6
2022-11-20T22:49:35.600Z,11
2022-11-20T22:51:35.677Z,11
2022-11-20T22:55:35.863Z,9
2022-11-20T22:57:35.967Z,10
2022-11-20T22:59:36.076Z,10
2022-11-20T23:01:36.150Z,9
2022-11-20T23:05:36.350Z,24
2022-11-20T23:07:40.816Z,15
2022-11-20T23:09:36.495Z,18
2022-11-20T23:11:36.610Z,15
2022-11-20T23:13:36.673Z,15
2022-11-20T23:15:36.743Z,11
2022-11-20T23:17:36.854Z,6
2022-11-20T23:19:36.916Z,6
2022-11-20T23:21:36.998Z,6
2022-11-20T23:23:37.154Z,9
2022-11-20T23:25:37.275Z,11
2022-11-20T23:27:37.252Z,7
2022-11-20T23:29:37.370Z,11
2022-11-20T23:34:07.646Z,8
2022-11-20T23:36:07.734Z,9
2022-11-20T23:38:07.881Z,11
2022-11-20T23:40:07.991Z,13
2022-11-20T23:42:08.112Z,11
2022-11-20T23:44:08.268Z,8
2022-11-20T23:46:11.434Z,6
2022-11-20T23:48:08.448Z,5
2022-11-20T23:50:08.509Z,11
2022-11-20T23:52:08.632Z,22
2022-11-20T23:54:08.774Z,35
2022-11-20T23:56:08.862Z,73
2022-11-20T23:58:08.999Z,46
